Time;durP1;ratioP1;P1;durP2;ratioP2;P2;SDS_P1;SDS_P2;PMS_P1;PMS_P2;Temp;Humidity;BMP_temperature;BMP_pressure;BME280_temperature;BME280_humidity;BME280_pressure;Samples;Min_cycle;Max_cycle;Signal;HPM_P1;HPM_P2
2022/09/26 00:02:37;;;;;;;22.73;18.70;;;;;;;15.64;82.74;100141.53;5012046;28;20034;-79
2022/09/26 00:05:22;;;;;;;20.83;16.95;;;;;;;15.66;82.91;100146.63;5011913;28;20038;-79
2022/09/26 00:08:07;;;;;;;20.48;16.38;;;;;;;15.76;81.79;100141.34;5018208;28;20037;-78
2022/09/26 00:10:57;;;;;;;21.85;14.93;;;;;;;15.70;82.01;100140.06;5014061;28;20045;-79
2022/09/26 00:13:42;;;;;;;21.40;17.48;;;;;;;15.59;83.17;100141.84;5011851;28;20042;-79
2022/09/26 00:16:26;;;;;;;;;;;;;;;15.40;84.06;100141.78;5015955;28;20041;-79
2022/09/26 00:19:11;;;;;;;23.15;17.75;;;;;;;15.43;84.03;100140.28;5012165;28;19914;-78
2022/09/26 00:21:56;;;;;;;;;;;;;;;15.51;84.11;100137.34;5012254;28;20433;-78
2022/09/26 00:24:40;;;;;;;21.42;18.20;;;;;;;15.39;84.89;100137.47;5011992;28;19913;-79
2022/09/26 00:27:25;;;;;;;25.15;21.42;;;;;;;15.41;84.38;100127.75;5012211;28;20038;-79
2022/09/26 00:30:10;;;;;;;19.50;14.15;;;;;;;15.45;84.24;100121.53;5011912;28;20497;-79
2022/09/26 00:32:55;;;;;;;24.90;19.67;;;;;;;15.42;84.36;100117.56;5020065;28;20046;-80
2022/09/26 00:35:40;;;;;;;18.02;14.52;;;;;;;15.37;84.71;100117.88;5017001;28;20041;-80
2022/09/26 00:38:25;;;;;;;;;;;;;;;15.32;84.89;100110.75;5017458;28;20050;-80
2022/09/26 00:41:10;;;;;;;22.80;19.30;;;;;;;15.21;85.51;100109.72;5019526;28;19913;-80
2022/09/26 00:43:56;;;;;;;28.65;19.67;;;;;;;15.04;86.32;100090.97;5016592;28;20045;-80
2022/09/26 00:46:46;;;;;;;26.60;21.70;;;;;;;14.95;87.04;100096.69;5016068;28;20042;-80
2022/09/26 00:49:37;;;;;;;24.25;19.13;;;;;;;14.91;87.54;100092.28;5015460;28;20045;-80
2022/09/26 00:52:33;;;;;;;25.75;21.05;;;;;;;14.87;87.65;100086.75;5015409;28;20037;-80
2022/09/26 00:55:22;;;;;;;25.83;20.23;;;;;;;14.79;87.98;100084.19;5016240;28;20042;-80
2022/09/26 00:58:21;;;;;;;25.10;20.75;;;;;;;14.72;88.39;100076.66;5014754;28;20050;-79
2022/09/26 01:01:06;;;;;;;26.15;20.05;;;;;;;14.71;88.90;100071.53;5008480;28;20042;-80
2022/09/26 01:03:51;;;;;;;27.85;20.80;;;;;;;14.69;89.03;100073.81;5010199;28;20034;-78
2022/09/26 01:06:36;;;;;;;;;;;;;;;14.74;88.86;100071.59;4995834;28;20498;-80
2022/09/26 01:09:21;;;;;;;25.13;19.70;;;;;;;14.80;87.90;100070.16;5001776;28;20293;-80
2022/09/26 01:12:07;;;;;;;23.50;18.95;;;;;;;14.88;86.07;100073.84;5002455;28;20042;-80
2022/09/26 01:14:53;;;;;;;21.75;17.65;;;;;;;14.78;86.27;100066.97;5018259;28;20046;-81
2022/09/26 01:17:42;;;;;;;22.75;18.75;;;;;;;14.85;85.56;100066.34;5020144;28;20042;-81
2022/09/26 01:20:50;;;;;;;21.08;17.35;;;;;;;14.95;84.65;100057.56;5007116;28;20038;-81
2022/09/26 01:23:53;;;;;;;19.98;16.88;;;;;;;14.88;85.01;100052.72;5010617;28;20042;-80
2022/09/26 01:26:45;;;;;;;24.35;19.33;;;;;;;14.67;86.20;100044.09;5015838;28;20505;-80
2022/09/26 01:30:05;;;;;;;23.42;19.20;;;;;;;14.50;87.49;100050.75;5014268;28;20502;-80
2022/09/26 01:33:07;;;;;;;21.58;17.35;;;;;;;14.60;87.29;100051.34;5000603;28;20042;-79
2022/09/26 01:36:15;;;;;;;23.85;19.83;;;;;;;14.51;88.19;100054.28;5018462;28;20050;-80
2022/09/26 01:39:41;;;;;;;27.55;21.27;;;;;;;14.48;87.60;100052.25;5014999;28;20033;-80
2022/09/26 01:42:26;;;;;;;;;;;;;;;14.55;85.93;100044.22;5015298;28;20409;-80
2022/09/26 01:45:17;;;;;;;24.55;18.88;;;;;;;14.48;85.43;100047.56;5012246;28;19914;-80
2022/09/26 01:48:18;;;;;;;23.45;18.83;;;;;;;14.25;86.15;100049.38;5019359;28;20041;-80
2022/09/26 01:51:25;;;;;;;26.38;19.90;;;;;;;14.38;85.66;100039.13;5008509;28;20504;-79
2022/09/26 01:54:24;;;;;;;24.70;18.98;;;;;;;14.40;85.12;100023.94;5016288;28;20405;-79
2022/09/26 01:57:16;;;;;;;27.75;19.63;;;;;;;14.40;85.20;100023.16;5017665;28;20037;-81
2022/09/26 02:00:05;;;;;;;25.83;19.38;;;;;;;14.44;85.00;100024.81;5015813;28;20046;-79
2022/09/26 02:03:01;;;;;;;25.65;19.50;;;;;;;14.50;84.02;100026.13;5016139;28;20050;-80
2022/09/26 02:06:01;;;;;;;29.40;21.52;;;;;;;14.33;85.59;100015.56;5014714;28;20050;-81
2022/09/26 02:09:10;;;;;;;28.45;20.65;;;;;;;14.28;86.25;100018.56;5010898;28;20493;-79
2022/09/26 02:12:00;;;;;;;26.55;19.48;;;;;;;14.27;86.72;100019.75;5015077;28;20042;-79
2022/09/26 02:14:50;;;;;;;26.60;20.50;;;;;;;14.26;86.78;100020.88;5014356;28;20428;-81
2022/09/26 02:17:41;;;;;;;26.50;20.10;;;;;;;14.16;85.36;100015.97;5015471;28;20046;-79
2022/09/26 02:20:30;;;;;;;22.40;17.95;;;;;;;14.05;84.83;100012.19;5015436;28;20045;-80
2022/09/26 02:23:15;;;;;;;23.25;18.48;;;;;;;13.99;83.25;100013.59;5017254;28;20033;-80
2022/09/26 02:26:00;;;;;;;;;;;;;;;13.93;83.10;100017.75;5017617;28;20038;-79
2022/09/26 02:28:44;;;;;;;26.48;18.50;;;;;;;13.73;84.00;100011.41;5008497;28;19914;-80
2022/09/26 02:31:37;;;;;;;32.75;21.83;;;;;;;13.49;86.06;100009.66;4994780;28;20494;-80
2022/09/26 02:34:24;;;;;;;26.65;19.23;;;;;;;13.48;87.29;100016.25;5004733;28;20485;-78
2022/09/26 02:37:11;;;;;;;28.45;21.23;;;;;;;13.54;88.00;100008.59;5014057;28;20041;-79
2022/09/26 02:39:56;;;;;;;31.90;24.35;;;;;;;13.70;88.92;100007.47;5018006;28;20049;-79
2022/09/26 02:42:56;;;;;;;29.75;23.33;;;;;;;13.82;88.46;100011.22;5016147;28;20042;-80
2022/09/26 02:45:50;;;;;;;26.48;19.25;;;;;;;13.90;88.75;99991.94;5011417;28;20033;-79
2022/09/26 02:49:08;;;;;;;27.30;20.52;;;;;;;13.77;86.10;99986.91;5014135;28;20040;-79
2022/09/26 02:52:31;;;;;;;27.75;20.45;;;;;;;13.79;85.37;99984.63;5000844;28;20494;-79
2022/09/26 02:55:25;;;;;;;21.58;16.45;;;;;;;13.88;87.49;99982.50;5012887;28;20042;-80
2022/09/26 02:58:25;;;;;;;19.27;14.65;;;;;;;13.99;87.57;99978.06;5015352;28;20046;-79
2022/09/26 03:01:30;;;;;;;32.65;20.02;;;;;;;13.97;87.08;99972.94;5014609;28;20057;-79
2022/09/26 03:04:38;;;;;;;30.17;21.60;;;;;;;13.95;87.27;99974.47;5006845;28;20497;-79
2022/09/26 03:07:33;;;;;;;29.35;21.27;;;;;;;13.95;87.25;99974.47;5014669;28;20422;-79
2022/09/26 03:10:19;;;;;;;30.52;23.15;;;;;;;13.85;87.23;99975.81;5017409;28;20060;-79
2022/09/26 03:13:12;;;;;;;30.20;22.73;;;;;;;13.89;87.85;99989.53;5012675;28;20509;-78
2022/09/26 03:15:58;;;;;;;23.25;17.67;;;;;;;13.72;84.77;99985.22;5000979;28;20056;-79
2022/09/26 03:19:18;;;;;;;22.48;17.45;;;;;;;13.53;84.52;99982.44;5015985;28;20048;-81
2022/09/26 03:22:03;;;;;;;29.10;21.10;;;;;;;13.49;86.84;99976.88;5023693;28;20050;-80
2022/09/26 03:24:48;;;;;;;25.65;19.73;;;;;;;13.52;85.60;99978.91;5020914;28;20512;-80
2022/09/26 03:27:37;;;;;;;26.23;19.25;;;;;;;13.45;85.30;99967.81;5026108;28;20056;-81
2022/09/26 03:30:22;;;;;;;26.02;19.85;;;;;;;13.28;84.84;99963.47;5023052;28;20045;-80
2022/09/26 03:33:42;;;;;;;29.67;20.40;;;;;;;13.11;85.83;99965.72;5026286;28;20068;-81
2022/09/26 03:36:27;;;;;;;;;;;;;;;13.24;87.03;99953.63;5020513;28;20103;-81
2022/09/26 03:39:12;;;;;;;32.40;21.00;;;;;;;13.05;87.58;99951.56;5020514;28;20380;-80
2022/09/26 03:42:16;;;;;;;28.20;21.40;;;;;;;13.01;86.97;99947.91;5019044;28;20053;-81
2022/09/26 03:45:07;;;;;;;37.00;21.92;;;;;;;13.15;86.86;99948.34;5020141;28;20049;-80
2022/09/26 03:48:12;;;;;;;32.88;24.08;;;;;;;13.22;88.36;99953.97;5022372;28;20064;-80
2022/09/26 03:51:04;;;;;;;34.85;23.38;;;;;;;13.27;88.61;99952.91;5020140;28;20046;-80
2022/09/26 03:53:49;;;;;;;33.63;24.95;;;;;;;13.18;88.61;99952.28;5012719;28;20048;-80
2022/09/26 03:56:37;;;;;;;36.80;25.63;;;;;;;13.00;89.13;99942.81;5008066;28;20056;-80
2022/09/26 03:59:21;;;;;;;35.75;24.80;;;;;;;12.96;89.84;99948.16;5017290;28;20041;-80
2022/09/26 04:02:08;;;;;;;36.60;24.60;;;;;;;12.95;89.81;99943.09;5016179;28;20424;-79
2022/09/26 04:04:58;;;;;;;32.95;24.58;;;;;;;13.05;90.18;99942.56;5017003;28;20057;-79
2022/09/26 04:07:43;;;;;;;28.98;20.48;;;;;;;13.07;90.12;99938.34;5018141;28;20053;-80
2022/09/26 04:10:28;;;;;;;40.25;27.73;;;;;;;13.24;91.19;99935.31;5012955;28;20038;-80
2022/09/26 04:13:14;;;;;;;37.92;26.75;;;;;;;13.34;90.95;99933.97;5014298;28;20049;-80
2022/09/26 04:16:00;;;;;;;30.88;20.23;;;;;;;13.39;90.77;99925.53;5011009;28;20489;-80
2022/09/26 04:18:45;;;;;;;37.47;27.98;;;;;;;13.38;90.36;99925.88;5006486;28;20057;-80
2022/09/26 04:21:34;;;;;;;40.90;27.92;;;;;;;13.48;91.01;99939.00;5011969;28;20042;-79
2022/09/26 04:24:20;;;;;;;37.42;26.75;;;;;;;13.57;90.60;99940.38;5010558;28;20049;-79
2022/09/26 04:27:06;;;;;;;35.65;25.52;;;;;;;13.53;90.48;99936.00;5004722;28;20061;-79
2022/09/26 04:29:51;;;;;;;37.58;27.30;;;;;;;13.48;91.22;99937.06;5008738;28;20049;-79
2022/09/26 04:32:45;;;;;;;34.20;24.98;;;;;;;13.40;91.28;99932.56;5010830;28;20046;-79
2022/09/26 04:35:49;;;;;;;40.75;26.85;;;;;;;13.32;91.09;99930.00;5005376;28;20038;-79
2022/09/26 04:38:34;;;;;;;39.40;28.42;;;;;;;13.39;92.14;99924.72;5009441;28;20037;-80
2022/09/26 04:41:21;;;;;;;35.60;24.88;;;;;;;13.40;92.30;99927.13;5005147;28;20065;-80
2022/09/26 04:44:09;;;;;;;42.13;26.98;;;;;;;13.43;92.22;99926.41;5012229;28;20513;-80
2022/09/26 04:46:53;;;;;;;41.58;26.23;;;;;;;13.48;92.17;99928.88;5010159;28;20049;-79
2022/09/26 04:49:44;;;;;;;36.83;27.33;;;;;;;13.49;92.53;99924.19;5028445;28;20041;-78
2022/09/26 04:52:30;;;;;;;36.83;26.55;;;;;;;13.49;92.38;99916.78;5008743;28;20046;-79
2022/09/26 04:55:14;;;;;;;39.55;25.77;;;;;;;13.59;91.62;99921.72;5008165;28;20042;-78
2022/09/26 04:58:01;;;;;;;;;;;;;;;13.66;91.66;99930.06;5010973;28;20046;-79
2022/09/26 05:00:49;;;;;;;36.17;25.58;;;;;;;13.66;91.46;99913.66;5016214;28;19913;-78
2022/09/26 05:03:45;;;;;;;39.28;25.77;;;;;;;13.65;91.31;99908.59;5005872;28;20038;-80
2022/09/26 05:06:30;;;;;;;40.13;26.27;;;;;;;13.63;91.04;99902.66;5009722;28;20038;-79
2022/09/26 05:09:17;;;;;;;37.67;26.38;;;;;;;13.60;90.74;99903.38;5006429;28;20053;-77
2022/09/26 05:12:16;;;;;;;36.05;25.23;;;;;;;13.56;91.45;99902.53;5011960;28;20041;-79
2022/09/26 05:15:07;;;;;;;37.88;26.60;;;;;;;13.66;91.56;99908.19;5010380;28;20046;-78
2022/09/26 05:17:56;;;;;;;32.97;24.88;;;;;;;13.64;91.51;99902.31;5004660;28;20121;-77
2022/09/26 05:20:47;;;;;;;39.97;26.48;;;;;;;13.66;91.40;99905.47;5004550;28;20054;-78
2022/09/26 05:26:47;;;;;;;42.45;25.90;;;;;;;13.64;91.90;99910.53;5007076;28;20053;-79
2022/09/26 05:29:32;;;;;;;41.90;27.77;;;;;;;13.61;92.36;99919.41;5007047;28;20037;-77
2022/09/26 05:32:21;;;;;;;42.70;26.63;;;;;;;13.64;93.18;99920.66;5011735;28;20050;-77
2022/09/26 05:35:09;;;;;;;42.70;27.95;;;;;;;13.64;93.39;99918.72;5008886;28;20038;-78
2022/09/26 05:38:02;;;;;;;38.42;27.42;;;;;;;13.69;93.19;99923.91;5000802;28;20045;-77
2022/09/26 05:40:55;;;;;;;41.88;28.13;;;;;;;13.78;92.21;99920.97;5006337;28;20045;-78
2022/09/26 05:43:40;;;;;;;35.17;26.75;;;;;;;13.81;91.59;99924.94;5013513;28;20539;-77
2022/09/26 05:46:30;;;;;;;42.05;27.67;;;;;;;13.86;90.51;99921.94;5013357;28;20046;-78
2022/09/26 05:49:20;;;;;;;36.33;26.45;;;;;;;13.86;89.78;99921.94;5014237;28;20052;-78
2022/09/26 05:52:04;;;;;;;;;;;;;;;13.79;89.92;99927.22;5015112;28;20045;-80
2022/09/26 05:54:49;;;;;;;36.72;24.80;;;;;;;13.86;90.01;99920.00;5012759;28;19917;-80
2022/09/26 05:57:59;;;;;;;32.88;24.08;;;;;;;14.13;88.09;99932.69;5014426;28;20041;-79
2022/09/26 06:00:59;;;;;;;101.90;28.05;;;;;;;14.42;87.15;99925.94;5024445;28;20098;-82
2022/09/26 06:03:45;;;;;;;39.45;25.70;;;;;;;15.13;84.17;99930.00;5022721;28;20030;-79
2022/09/26 06:06:37;;;;;;;31.33;24.10;;;;;;;16.27;78.13;99922.34;5016979;28;20042;-79
2022/09/26 06:09:29;;;;;;;32.60;23.95;;;;;;;17.73;72.52;99912.84;5008857;28;20034;-78
2022/09/26 06:12:30;;;;;;;29.27;22.88;;;;;;;19.27;65.49;99930.38;5008341;28;20046;-79
2022/09/26 06:15:16;;;;;;;29.08;20.67;;;;;;;19.85;62.03;99923.69;5005057;28;20042;-79
2022/09/26 06:18:03;;;;;;;28.20;20.88;;;;;;;20.29;60.35;99921.19;5020881;28;20052;-78
2022/09/26 06:20:48;;;;;;;28.88;21.30;;;;;;;20.30;60.19;99910.94;5009324;28;20042;-79
2022/09/26 06:23:34;;;;;;;20.02;14.50;;;;;;;21.21;57.68;99918.00;4995832;28;20046;-78
2022/09/26 06:26:22;;;;;;;30.23;20.63;;;;;;;21.21;57.39;99914.44;5016985;28;20042;-81
2022/09/26 06:29:09;;;;;;;26.33;18.63;;;;;;;21.77;55.09;99916.72;5004540;28;20524;-79
2022/09/26 06:31:57;;;;;;;23.27;17.65;;;;;;;22.69;52.99;99922.44;5014824;28;20049;-82
2022/09/26 06:35:00;;;;;;;25.58;17.02;;;;;;;23.31;50.48;99928.28;5006200;28;20046;-80
2022/09/26 06:38:08;;;;;;;22.67;15.40;;;;;;;23.63;48.63;99925.00;5010271;28;20072;-82
2022/09/26 06:40:54;;;;;;;18.98;15.70;;;;;;;24.08;47.82;99930.91;5003795;28;20053;-84
2022/09/26 06:43:39;;;;;;;17.42;13.43;;;;;;;21.11;55.54;99921.59;5000418;28;20053;-84
2022/09/26 06:46:30;;;;;;;20.20;13.13;;;;;;;19.31;61.99;99933.13;5015102;28;20053;-87
2022/09/26 06:49:28;;;;;;;14.60;9.45;;;;;;;18.07;64.99;99921.72;5021796;28;20046;-86
2022/09/26 06:52:19;;;;;;;8.55;6.78;;;;;;;17.43;66.63;99927.53;5012629;28;20081;-85
2022/09/26 06:55:06;;;;;;;7.53;4.97;;;;;;;17.23;66.69;99930.88;4998034;28;20409;-87
2022/09/26 06:57:52;;;;;;;13.40;7.03;;;;;;;17.86;68.29;99931.41;5006024;28;20061;-79
2022/09/26 07:00:39;;;;;;;10.20;7.05;;;;;;;18.43;64.86;99934.47;5010631;28;20049;-78
2022/09/26 07:03:42;;;;;;;12.40;5.55;;;;;;;18.46;64.40;99939.19;5008750;28;20438;-80
2022/09/26 07:06:44;;;;;;;10.45;5.90;;;;;;;18.79;64.19;99941.69;5007120;28;20058;-80
2022/09/26 07:09:30;;;;;;;10.57;5.07;;;;;;;18.67;63.34;99939.31;4995520;28;20053;-79
2022/09/26 07:12:22;;;;;;;11.05;4.78;;;;;;;18.59;63.23;99943.19;5009106;28;20520;-79
2022/09/26 07:15:14;;;;;;;4.70;3.75;;;;;;;18.46;63.09;99935.66;5004893;28;20049;-79
2022/09/26 07:18:01;;;;;;;19.25;10.52;;;;;;;17.44;70.30;99936.56;5014269;28;20044;-78
2022/09/26 07:20:52;;;;;;;25.10;17.90;;;;;;;16.26;77.52;99931.75;5008838;28;20042;-80
2022/09/26 07:24:00;;;;;;;28.30;19.67;;;;;;;15.85;80.45;99924.50;5008060;28;20038;-78
2022/09/26 07:26:45;;;;;;;23.85;18.45;;;;;;;16.67;76.95;99923.63;5014620;28;20053;-78
2022/09/26 07:29:31;;;;;;;;;;;;;;;17.07;70.81;99925.63;5018802;28;20053;-79
2022/09/26 07:32:16;;;;;;;;;;;;;;;17.92;69.16;99926.34;5003367;28;19913;-80
2022/09/26 07:35:13;;;;;;;7.05;4.30;;;;;;;18.44;65.89;99919.50;5013356;28;19917;-79
2022/09/26 07:37:58;;;;;;;6.05;4.40;;;;;;;18.72;63.70;99918.88;5003550;28;20061;-80
2022/09/26 07:40:43;;;;;;;7.00;2.85;;;;;;;18.98;61.34;99915.78;5015656;28;20048;-78
2022/09/26 07:43:28;;;;;;;3.67;1.55;;;;;;;19.09;60.41;99918.56;5001448;28;20053;-80
2022/09/26 07:52:31;;;;;;;88.47;15.88;;;;;;;19.24;59.91;99928.41;5007232;28;20540;-79
2022/09/26 07:56:04;;;;;;;20.23;6.45;;;;;;;19.30;60.21;99935.09;4992725;28;20061;-78
2022/09/26 07:58:55;;;;;;;7.68;5.53;;;;;;;19.25;60.64;99941.00;5000146;28;20152;-79
2022/09/26 08:01:56;;;;;;;10.90;6.13;;;;;;;19.32;61.36;99943.78;5012250;28;20044;-78
2022/09/26 08:04:54;;;;;;;9.73;7.22;;;;;;;19.21;61.68;99940.22;5014825;28;20237;-78
2022/09/26 08:07:39;;;;;;;12.70;9.50;;;;;;;19.22;62.08;99947.31;5026494;28;20053;-79
2022/09/26 08:10:33;;;;;;;19.48;13.65;;;;;;;19.21;62.77;99935.50;5011513;28;20065;-78
2022/09/26 08:13:47;;;;;;;16.35;12.95;;;;;;;19.18;62.89;99939.03;5015353;28;20049;-80
2022/09/26 08:16:32;;;;;;;18.38;13.75;;;;;;;19.24;62.89;99944.97;5003826;28;20042;-79
2022/09/26 08:19:21;;;;;;;26.30;16.48;;;;;;;19.26;62.98;99948.09;5006217;28;20099;-79
2022/09/26 08:22:07;;;;;;;22.42;15.07;;;;;;;19.30;62.69;99948.13;5015544;28;20078;-80
2022/09/26 08:24:53;;;;;;;21.63;12.38;;;;;;;19.35;62.57;99951.25;5014237;28;20052;-79
2022/09/26 08:27:50;;;;;;;24.77;14.05;;;;;;;19.35;62.63;99944.97;5005032;28;20050;-79
2022/09/26 08:30:39;;;;;;;23.20;16.08;;;;;;;19.39;62.79;99948.50;5007610;28;20042;-78
2022/09/26 08:33:25;;;;;;;22.00;14.50;;;;;;;19.42;62.66;99947.72;5012228;28;20053;-81
2022/09/26 08:36:12;;;;;;;28.13;15.18;;;;;;;19.46;62.43;99952.06;5000088;28;20057;-77
2022/09/26 08:39:28;;;;;;;27.92;16.40;;;;;;;19.51;61.77;99954.44;5001736;28;20049;-77
2022/09/26 08:42:54;;;;;;;27.52;16.08;;;;;;;19.50;62.06;99952.88;5009109;28;20038;-78
2022/09/26 08:49:54;;;;;;;19.73;13.82;;;;;;;19.24;63.22;99958.75;5004426;28;20046;-82
2022/09/26 08:52:44;;;;;;;17.52;13.25;;;;;;;19.40;61.86;99964.66;5015685;28;20121;-80
2022/09/26 08:55:34;;;;;;;18.92;12.77;;;;;;;19.42;61.95;99956.00;5018174;28;20505;-80
2022/09/26 08:58:25;;;;;;;19.63;13.48;;;;;;;19.53;61.31;99952.09;5018738;28;20528;-82
2022/09/26 09:01:18;;;;;;;18.05;13.15;;;;;;;19.45;61.54;99953.28;5018629;28;20038;-81
2022/09/26 09:04:40;;;;;;;18.55;12.20;;;;;;;19.50;60.56;99949.34;5018412;28;20042;-80
2022/09/26 09:07:26;;;;;;;17.55;11.52;;;;;;;19.47;61.65;99947.34;5018606;28;20402;-80
2022/09/26 09:10:16;;;;;;;;;;;;;;;19.63;61.42;99948.53;5018889;28;20494;-80
2022/09/26 09:13:42;;;;;;;17.35;10.55;;;;;;;19.78;61.12;99956.81;5022998;28;19917;-81
2022/09/26 09:17:17;;;;;;;13.27;10.15;;;;;;;19.80;60.83;99957.19;5018356;28;20061;-80
2022/09/26 09:20:53;;;;;;;20.33;10.95;;;;;;;19.89;59.55;99949.31;5017060;28;20053;-80
2022/09/26 09:24:22;;;;;;;19.48;10.45;;;;;;;19.97;60.79;99948.88;5024027;28;20041;-81
2022/09/26 09:27:19;;;;;;;17.77;12.27;;;;;;;19.96;58.78;99946.53;5016330;28;20038;-80
2022/09/26 09:30:08;;;;;;;18.40;9.88;;;;;;;19.97;58.77;99950.84;5019302;28;20429;-80
2022/09/26 09:33:24;;;;;;;14.02;9.57;;;;;;;20.37;57.66;99933.81;5010425;28;20057;-81
2022/09/26 09:36:40;;;;;;;12.30;8.95;;;;;;;20.58;58.19;99945.97;5007600;28;20049;-80
2022/09/26 09:39:49;;;;;;;12.38;8.43;;;;;;;20.65;55.18;99929.38;5016550;28;20049;-81
2022/09/26 09:42:49;;;;;;;12.77;7.40;;;;;;;20.85;55.81;99931.22;5028866;28;20049;-79
2022/09/26 09:45:48;;;;;;;10.32;7.47;;;;;;;20.92;54.94;99927.66;5041024;28;20037;-79
2022/09/26 09:48:33;;;;;;;9.80;6.80;;;;;;;21.03;54.87;99925.59;5004335;28;20049;-79
2022/09/26 09:51:59;;;;;;;11.20;7.15;;;;;;;21.13;55.99;99921.19;5004449;28;20037;-80
2022/09/26 09:55:02;;;;;;;13.02;5.20;;;;;;;21.18;51.67;99924.31;5015843;28;20061;-79
2022/09/26 09:57:55;;;;;;;8.02;5.93;;;;;;;21.28;53.31;99917.94;5034871;28;20057;-80
2022/09/26 10:00:59;;;;;;;11.90;6.60;;;;;;;21.28;55.35;99915.16;5007653;28;20049;-81
2022/09/26 10:04:03;;;;;;;6.70;4.82;;;;;;;21.33;51.22;99911.97;5014385;28;20061;-84
2022/09/26 10:06:51;;;;;;;9.77;5.47;;;;;;;21.55;52.60;99912.56;5008472;28;20045;-79
2022/09/26 10:09:45;;;;;;;10.15;5.45;;;;;;;21.73;53.07;99906.88;5009805;28;20049;-78
2022/09/26 10:12:50;;;;;;;5.28;4.50;;;;;;;21.61;52.30;99904.63;5003893;28;20054;-79
2022/09/26 10:16:07;;;;;;;5.07;4.28;;;;;;;21.69;52.98;99901.38;5014095;28;20049;-79
2022/09/26 10:19:12;;;;;;;8.40;4.50;;;;;;;21.54;53.20;99893.59;5005043;28;20041;-78
2022/09/26 10:21:58;;;;;;;9.80;4.78;;;;;;;21.44;53.62;99898.03;5014763;28;20424;-80
2022/09/26 10:24:46;;;;;;;7.70;6.03;;;;;;;21.80;51.56;99906.00;5011954;28;20069;-79
2022/09/26 10:27:39;;;;;;;9.13;4.65;;;;;;;21.81;50.49;99899.28;5007511;28;20405;-79
2022/09/26 10:30:32;;;;;;;7.25;5.75;;;;;;;21.63;51.14;99902.25;5006574;28;20401;-78
2022/09/26 10:33:29;;;;;;;8.57;5.60;;;;;;;21.79;51.53;99894.16;5014910;28;20061;-78
2022/09/26 10:36:37;;;;;;;6.70;5.03;;;;;;;22.08;50.80;99895.47;5018469;28;20045;-78
2022/09/26 10:42:27;;;;;;;8.98;5.93;;;;;;;21.37;53.38;99881.53;5015649;28;20053;-79
2022/09/26 10:45:17;;;;;;;8.88;4.97;;;;;;;21.52;53.47;99882.97;5013285;28;20065;-81
2022/09/26 10:48:33;;;;;;;7.75;5.70;;;;;;;21.73;53.15;99887.50;4995620;28;20045;-80
2022/09/26 10:51:59;;;;;;;6.82;5.53;;;;;;;22.07;52.78;99888.34;4998139;28;20053;-80
2022/09/26 10:54:54;;;;;;;7.07;4.45;;;;;;;22.77;49.93;99887.88;5007173;28;20401;-80
2022/09/26 10:57:47;;;;;;;7.53;5.93;;;;;;;23.92;45.73;99891.16;5005549;28;20514;-80
2022/09/26 11:00:43;;;;;;;7.43;5.43;;;;;;;23.27;47.63;99887.91;5005675;28;20400;-81
2022/09/26 11:04:10;;;;;;;6.97;4.65;;;;;;;23.03;44.91;99887.09;5012306;28;20052;-84
2022/09/26 11:07:24;;;;;;;4.82;3.40;;;;;;;23.86;46.27;99893.66;5016129;28;20036;-82
2022/09/26 11:10:33;;;;;;;8.80;5.20;;;;;;;23.63;46.74;99883.34;5013289;28;20049;-79
2022/09/26 11:13:30;;;;;;;6.18;4.25;;;;;;;23.11;48.64;99873.91;5008295;28;20049;-79
2022/09/26 11:16:23;;;;;;;;;;;;;;;23.56;47.00;99880.72;5013781;28;20053;-79
2022/09/26 11:19:43;;;;;;;6.45;3.55;;;;;;;22.91;48.75;99874.59;5002476;28;20427;-77
2022/09/26 11:22:39;;;;;;;5.57;3.78;;;;;;;22.40;50.21;99874.91;4998964;28;20049;-77
2022/09/26 11:25:28;;;;;;;7.15;3.33;;;;;;;22.83;48.54;99878.69;5011734;28;20516;-77
2022/09/26 11:28:22;;;;;;;5.78;4.95;;;;;;;23.36;44.67;99871.53;5018164;28;20052;-77
2022/09/26 11:31:34;;;;;;;11.10;3.53;;;;;;;22.82;47.60;99857.69;5004915;28;20045;-78
2022/09/26 11:34:45;;;;;;;3.08;2.67;;;;;;;22.25;49.70;99845.81;5005942;28;20054;-78
2022/09/26 11:37:42;;;;;;;3.63;2.70;;;;;;;21.85;51.59;99848.22;5012778;28;20049;-78
2022/09/26 11:40:43;;;;;;;7.72;5.95;;;;;;;22.31;48.47;99836.63;5011003;28;20041;-78
2022/09/26 11:43:52;;;;;;;5.38;4.50;;;;;;;22.12;48.99;99835.28;5006770;28;20053;-78
2022/09/26 11:47:06;;;;;;;7.78;3.92;;;;;;;21.54;51.11;99827.19;5008876;28;20420;-77
2022/09/26 11:50:22;;;;;;;9.27;4.78;;;;;;;21.94;50.06;99826.41;5014146;28;20049;-78
2022/09/26 11:53:39;;;;;;;10.60;5.22;;;;;;;21.88;50.13;99828.03;5017411;28;20049;-77
2022/09/26 11:56:37;;;;;;;11.93;6.78;;;;;;;22.16;48.85;99813.88;5012567;28;20065;-78
2022/09/26 11:59:31;;;;;;;8.20;4.88;;;;;;;22.21;49.20;99809.06;5027037;28;20417;-77
2022/09/26 12:02:43;;;;;;;15.13;6.75;;;;;;;22.29;48.76;99805.78;5014090;28;20449;-77
2022/09/26 12:05:38;;;;;;;9.88;7.05;;;;;;;22.21;49.04;99795.22;5008066;28;20061;-78
2022/09/26 12:08:56;;;;;;;14.38;6.93;;;;;;;21.85;49.55;99792.88;4997453;23;20046;-75
2022/09/26 12:11:58;;;;;;;12.35;6.32;;;;;;;21.77;50.16;99783.09;4978323;28;20057;-75
2022/09/26 12:14:51;;;;;;;13.50;7.32;;;;;;;21.74;50.37;99778.34;4978293;28;20049;-75
2022/09/26 12:18:13;;;;;;;10.73;5.78;;;;;;;21.48;51.33;99768.00;4980759;28;20418;-75
2022/09/26 12:21:31;;;;;;;6.97;4.75;;;;;;;21.19;52.39;99768.28;4976374;28;20053;-75
2022/09/26 12:24:27;;;;;;;7.78;5.05;;;;;;;21.10;53.04;99753.34;4967486;28;20058;-75
2022/09/26 12:27:26;;;;;;;8.38;4.68;;;;;;;21.25;52.83;99754.81;4967864;28;20092;-75
2022/09/26 12:30:14;;;;;;;8.10;4.20;;;;;;;21.23;52.82;99749.66;4972975;28;20414;-74
2022/09/26 12:33:21;;;;;;;6.13;4.07;;;;;;;21.45;52.34;99747.47;4980057;28;20050;-74
2022/09/26 12:36:25;;;;;;;6.97;5.55;;;;;;;21.60;51.29;99735.03;4987678;28;20561;-75
2022/09/26 12:39:44;;;;;;;14.00;5.60;;;;;;;22.09;49.88;99735.66;4974825;28;20448;-76
2022/09/26 12:42:44;;;;;;;8.35;4.72;;;;;;;22.24;49.16;99733.47;4975588;28;20525;-74
2022/09/26 12:45:52;;;;;;;5.68;4.07;;;;;;;21.91;49.57;99727.53;4964141;28;20046;-75
2022/09/26 12:48:40;;;;;;;4.68;3.67;;;;;;;21.75;50.17;99724.56;4971980;28;20046;-75
2022/09/26 12:51:46;;;;;;;4.25;3.50;;;;;;;21.61;51.22;99722.00;4955003;28;20522;-74
2022/09/26 12:55:08;;;;;;;8.10;4.28;;;;;;;21.70;50.80;99716.75;4965997;28;20426;-75
2022/09/26 12:58:10;;;;;;;10.35;6.90;;;;;;;22.16;49.32;99716.94;4968011;28;20529;-74
2022/09/26 13:01:21;;;;;;;4.50;3.60;;;;;;;22.15;49.35;99709.03;4961152;28;20058;-74
2022/09/26 13:04:40;;;;;;;8.40;5.78;;;;;;;21.74;50.17;99709.16;4953242;29;20046;-75
2022/09/26 13:07:43;;;;;;;8.43;4.80;;;;;;;21.65;51.06;99706.91;4958726;28;20050;-74
2022/09/26 13:10:36;;;;;;;7.13;4.60;;;;;;;21.46;51.15;99692.94;4973025;28;20124;-76
2022/09/26 13:13:45;;;;;;;6.88;5.22;;;;;;;21.88;49.68;99695.16;4985962;28;20685;-76
2022/09/26 13:16:43;;;;;;;6.68;4.20;;;;;;;21.43;50.68;99689.03;4977764;28;20050;-75
2022/09/26 13:19:31;;;;;;;7.13;3.60;;;;;;;21.16;52.00;99691.69;4980816;28;20061;-77
2022/09/26 13:22:51;;;;;;;6.40;4.30;;;;;;;21.21;52.26;99693.22;4984616;28;20524;-77
2022/09/26 13:25:46;;;;;;;10.05;5.55;;;;;;;21.01;53.20;99690.25;4971367;28;20054;-76
2022/09/26 13:28:36;;;;;;;;;;;;;;;21.29;52.09;99684.44;4988347;28;20046;-78
2022/09/26 13:31:40;;;;;;;7.72;4.03;;;;;;;21.32;51.78;99677.28;4967754;28;19953;-76
2022/09/26 13:34:33;;;;;;;7.20;3.28;;;;;;;21.52;51.34;99686.53;4980163;28;20053;-76
2022/09/26 13:37:34;;;;;;;4.18;2.72;;;;;;;21.29;51.26;99684.44;4987022;28;20118;-77
2022/09/26 13:40:45;;;;;;;5.95;3.50;;;;;;;21.13;52.05;99675.88;4982338;28;20045;-76
2022/09/26 13:43:50;;;;;;;7.53;3.30;;;;;;;21.33;51.73;99679.63;4974178;28;20055;-74
2022/09/26 13:47:00;;;;;;;7.97;4.90;;;;;;;21.52;50.83;99672.72;4973226;28;20062;-77
2022/09/26 13:50:01;;;;;;;5.95;3.80;;;;;;;21.81;49.33;99670.34;4970008;28;20049;-78
2022/09/26 13:53:06;;;;;;;9.13;2.13;;;;;;;21.69;49.22;99660.59;4978561;28;20050;-76
2022/09/26 13:56:30;;;;;;;3.17;2.50;;;;;;;21.43;50.34;99663.34;4991908;28;20065;-76